createdAt,value
2022-09-17T00:01:29.711Z,10.98
2022-09-17T00:04:04.347Z,10.80
2022-09-17T00:06:34.367Z,10.80
2022-09-17T00:09:02.578Z,10.72
2022-09-17T00:11:33.490Z,10.69
2022-09-17T00:14:03.160Z,10.63
2022-09-17T00:16:32.867Z,10.65
2022-09-17T00:19:01.565Z,10.69
2022-09-17T00:21:30.420Z,10.59
2022-09-17T00:23:59.917Z,10.62
2022-09-17T00:26:28.804Z,10.62
2022-09-17T00:28:59.275Z,10.57
2022-09-17T00:31:28.502Z,10.50
2022-09-17T00:33:56.728Z,10.40
2022-09-17T00:36:24.759Z,10.36
2022-09-17T00:38:53.135Z,10.36
2022-09-17T00:41:22.380Z,10.35
2022-09-17T00:43:52.459Z,10.35
2022-09-17T00:46:31.403Z,10.30
2022-09-17T00:49:02.930Z,10.32
2022-09-17T00:51:36.382Z,10.28
2022-09-17T00:54:07.613Z,10.31
2022-09-17T00:56:38.086Z,10.28
2022-09-17T00:59:07.053Z,10.22
2022-09-17T01:01:37.423Z,10.22
2022-09-17T01:04:05.548Z,10.21
2022-09-17T01:06:38.145Z,10.16
2022-09-17T01:09:23.233Z,10.14
2022-09-17T01:12:04.702Z,10.04
2022-09-17T01:14:48.852Z,10.03
2022-09-17T01:17:24.981Z,9.96
2022-09-17T01:20:32.394Z,9.91
2022-09-17T01:23:32.993Z,9.86
2022-09-17T01:26:19.812Z,9.86
2022-09-17T01:28:57.949Z,9.91
2022-09-17T01:31:36.322Z,10.00
2022-09-17T01:34:13.071Z,10.02
2022-09-17T01:36:49.997Z,10.06
2022-09-17T01:39:30.027Z,10.11
2022-09-17T01:42:06.149Z,10.18
2022-09-17T01:44:41.783Z,10.15
2022-09-17T01:47:20.942Z,10.17
2022-09-17T01:49:51.681Z,10.26
2022-09-17T01:52:21.865Z,10.23
2022-09-17T01:54:55.479Z,10.21
2022-09-17T01:57:29.986Z,10.14
2022-09-17T02:00:02.535Z,10.06
2022-09-17T02:02:46.401Z,10.04
2022-09-17T02:05:20.522Z,9.93
2022-09-17T02:07:52.235Z,9.85
2022-09-17T02:10:23.603Z,9.83
2022-09-17T02:12:58.026Z,9.96
2022-09-17T02:15:32.279Z,9.91
2022-09-17T02:18:07.458Z,9.90
2022-09-17T02:20:42.550Z,9.96
2022-09-17T02:23:17.539Z,9.88
2022-09-17T02:25:50.754Z,9.91
2022-09-17T02:28:25.277Z,9.78
2022-09-17T02:30:53.186Z,9.78
2022-09-17T02:33:23.544Z,9.81
2022-09-17T02:35:51.695Z,9.78
2022-09-17T02:38:24.439Z,9.76
2022-09-17T02:41:00.351Z,9.78
2022-09-17T02:43:36.695Z,9.79
2022-09-17T02:46:20.968Z,9.90
2022-09-17T02:49:15.472Z,9.80
2022-09-17T02:51:53.495Z,9.76
2022-09-17T02:54:28.257Z,9.78
2022-09-17T02:57:09.401Z,9.79
2022-09-17T02:59:43.026Z,9.78
2022-09-17T03:02:24.298Z,9.78
2022-09-17T03:04:55.139Z,9.72
2022-09-17T03:07:24.819Z,9.74
2022-09-17T03:09:52.818Z,9.87
2022-09-17T03:12:20.768Z,9.80
2022-09-17T03:14:48.689Z,9.80
2022-09-17T03:17:17.147Z,9.82
2022-09-17T03:19:44.914Z,9.87
2022-09-17T03:22:14.115Z,10.00
2022-09-17T03:24:41.963Z,9.96
2022-09-17T03:27:09.795Z,10.03
2022-09-17T03:29:37.724Z,10.07
2022-09-17T03:32:05.937Z,10.06
2022-09-17T03:34:34.155Z,10.13
2022-09-17T03:37:02.319Z,10.12
2022-09-17T03:39:31.805Z,10.12
2022-09-17T03:41:59.737Z,10.09
2022-09-17T03:44:27.670Z,10.11
2022-09-17T03:46:55.789Z,10.16
2022-09-17T03:49:24.887Z,10.28
2022-09-17T03:51:52.781Z,10.22
2022-09-17T03:54:20.573Z,10.19
2022-09-17T03:56:50.139Z,10.16
2022-09-17T03:59:18.104Z,10.21
2022-09-17T04:01:46.170Z,10.20
2022-09-17T04:04:13.967Z,10.20
2022-09-17T04:06:41.873Z,10.21
2022-09-17T04:09:09.801Z,10.27
2022-09-17T04:11:37.808Z,10.23
2022-09-17T04:14:07.293Z,10.32
2022-09-17T04:16:35.291Z,10.30
2022-09-17T04:19:03.665Z,10.31
2022-09-17T04:21:31.499Z,10.28
2022-09-17T04:23:59.877Z,10.33
2022-09-17T04:26:27.769Z,10.31
2022-09-17T04:28:55.519Z,10.31
2022-09-17T04:31:27.069Z,10.31
2022-09-17T04:33:55.183Z,10.31
2022-09-17T04:36:23.032Z,10.36
2022-09-17T04:38:51.219Z,10.32
2022-09-17T04:41:19.522Z,10.31
2022-09-17T04:43:49.356Z,10.28
2022-09-17T04:46:17.894Z,10.29
2022-09-17T04:48:47.130Z,10.42
2022-09-17T04:51:15.148Z,10.42
2022-09-17T04:53:42.965Z,10.44
2022-09-17T04:56:10.791Z,10.46
2022-09-17T04:58:39.151Z,10.46
2022-09-17T05:01:07.426Z,10.52
2022-09-17T05:03:35.506Z,10.51
2022-09-17T05:06:05.390Z,10.49
2022-09-17T05:08:33.324Z,10.47
2022-09-17T05:11:01.303Z,10.52
2022-09-17T05:13:29.204Z,10.52
2022-09-17T05:15:57.569Z,10.43
2022-09-17T05:18:26.263Z,10.47
2022-09-17T05:20:54.143Z,10.43
2022-09-17T05:23:23.322Z,10.44
2022-09-17T05:25:52.781Z,10.39
2022-09-17T05:28:20.690Z,10.41
2022-09-17T05:30:49.117Z,10.44
2022-09-17T05:33:17.259Z,10.54
2022-09-17T05:35:45.326Z,10.48
2022-09-17T05:38:13.369Z,10.52
2022-09-17T05:40:43.605Z,10.50
2022-09-17T05:43:12.451Z,10.53
2022-09-17T05:45:40.467Z,10.64
2022-09-17T05:48:12.604Z,10.65
2022-09-17T05:50:41.331Z,10.68
2022-09-17T05:53:13.022Z,10.79
2022-09-17T05:55:42.524Z,10.78
2022-09-17T05:58:12.189Z,10.82
2022-09-17T06:00:41.227Z,10.79
2022-09-17T06:03:10.271Z,10.80
2022-09-17T06:05:38.497Z,10.87
2022-09-17T06:08:06.921Z,10.84
2022-09-17T06:10:38.281Z,10.85
2022-09-17T06:13:07.512Z,10.88
2022-09-17T06:15:35.486Z,10.87
2022-09-17T06:18:03.368Z,10.83
2022-09-17T06:20:31.175Z,10.83
2022-09-17T06:22:59.746Z,10.87
2022-09-17T06:25:29.410Z,10.82
2022-09-17T06:27:58.703Z,10.80
2022-09-17T06:30:28.540Z,10.85
2022-09-17T06:32:56.614Z,10.90
2022-09-17T06:35:25.239Z,10.97
2022-09-17T06:37:53.127Z,11.10
2022-09-17T06:40:23.533Z,11.31
2022-09-17T06:42:51.614Z,11.41
2022-09-17T06:45:19.657Z,11.41
2022-09-17T06:47:49.182Z,11.45
2022-09-17T06:50:17.245Z,11.48
2022-09-17T06:52:49.515Z,11.45
2022-09-17T06:55:18.561Z,11.45
2022-09-17T06:57:46.566Z,11.57
2022-09-17T07:00:15.905Z,11.47
2022-09-17T07:02:43.787Z,11.47
2022-09-17T07:05:13.092Z,11.51
2022-09-17T07:07:41.239Z,11.59
2022-09-17T07:10:10.053Z,11.64
2022-09-17T07:12:46.627Z,11.65
2022-09-17T07:15:17.278Z,11.71
2022-09-17T07:17:45.572Z,11.73
2022-09-17T07:20:15.555Z,11.83
2022-09-17T07:22:43.892Z,12.05
2022-09-17T07:25:12.437Z,12.21
2022-09-17T07:27:41.482Z,12.15
2022-09-17T07:30:11.227Z,12.15
2022-09-17T07:32:39.246Z,12.20
2022-09-17T07:35:08.009Z,12.28
2022-09-17T07:37:37.735Z,12.34
2022-09-17T07:40:07.664Z,12.37
2022-09-17T07:42:36.110Z,12.52
2022-09-17T07:45:04.217Z,12.58
2022-09-17T07:47:32.936Z,12.62
2022-09-17T07:50:04.074Z,12.79
2022-09-17T07:52:33.252Z,12.84
2022-09-17T07:55:02.577Z,12.90
2022-09-17T07:57:30.578Z,13.15
2022-09-17T07:59:58.411Z,13.24
2022-09-17T08:02:27.026Z,13.12
2022-09-17T08:04:55.288Z,13.16
2022-09-17T08:07:23.443Z,13.31
2022-09-17T08:09:51.763Z,13.56
2022-09-17T08:12:22.799Z,13.61
2022-09-17T08:14:50.746Z,13.55
2022-09-17T08:17:18.635Z,13.52
2022-09-17T08:19:46.666Z,13.54
2022-09-17T08:22:15.006Z,13.54
2022-09-17T08:24:43.051Z,13.39
2022-09-17T08:27:11.539Z,13.36
2022-09-17T08:29:40.727Z,13.40
2022-09-17T08:32:08.862Z,13.31
2022-09-17T08:34:37.086Z,13.25
2022-09-17T08:37:04.939Z,13.72
2022-09-17T08:39:32.806Z,13.78
2022-09-17T08:42:09.873Z,13.90
2022-09-17T08:44:45.580Z,14.13
2022-09-17T08:47:19.562Z,14.30
2022-09-17T08:49:54.003Z,13.95
2022-09-17T08:52:55.526Z,14.11
2022-09-17T08:55:36.717Z,13.83
2022-09-17T08:58:41.869Z,13.73
2022-09-17T09:01:21.992Z,13.95
2022-09-17T09:04:05.490Z,13.87
2022-09-17T09:06:41.137Z,14.10
2022-09-17T09:09:15.681Z,14.27
2022-09-17T09:11:50.990Z,14.57
2022-09-17T09:14:24.897Z,14.53
2022-09-17T09:16:56.819Z,14.56
2022-09-17T09:19:27.072Z,14.74
2022-09-17T09:22:05.921Z,15.02
2022-09-17T09:24:42.646Z,14.98
2022-09-17T09:27:19.424Z,14.87
2022-09-17T09:29:59.262Z,14.87
2022-09-17T09:32:42.299Z,14.96
2022-09-17T09:35:18.782Z,14.84
2022-09-17T09:37:54.906Z,14.71
2022-09-17T09:40:43.954Z,14.57
2022-09-17T09:43:19.963Z,14.67
2022-09-17T09:46:08.750Z,14.63
2022-09-17T09:48:51.647Z,14.53
2022-09-17T09:51:32.613Z,14.40
2022-09-17T09:54:14.543Z,14.31
2022-09-17T09:56:56.132Z,14.22
2022-09-17T09:59:24.508Z,14.79
2022-09-17T10:01:53.122Z,15.05
2022-09-17T10:04:25.843Z,15.29
2022-09-17T10:06:55.781Z,15.55
2022-09-17T10:09:23.957Z,15.72
2022-09-17T10:12:03.191Z,15.73
2022-09-17T10:14:33.393Z,15.76
2022-09-17T10:17:18.120Z,15.96
2022-09-17T10:19:48.861Z,15.95
2022-09-17T10:22:26.467Z,15.58
2022-09-17T10:24:56.836Z,15.33
2022-09-17T10:27:26.643Z,15.39
2022-09-17T10:30:04.093Z,15.32
2022-09-17T10:32:32.395Z,15.44
2022-09-17T10:35:05.055Z,15.43
2022-09-17T10:37:36.872Z,15.46
2022-09-17T10:40:27.352Z,15.08
2022-09-17T10:43:22.444Z,15.07
2022-09-17T10:45:59.974Z,15.16
2022-09-17T10:48:32.983Z,15.23
2022-09-17T10:51:03.468Z,15.32
2022-09-17T10:53:31.505Z,15.26
2022-09-17T10:56:12.571Z,15.40
2022-09-17T10:58:54.117Z,15.32
2022-09-17T11:01:37.177Z,15.27
2022-09-17T11:04:21.653Z,15.44
2022-09-17T11:07:21.898Z,15.53
2022-09-17T11:09:57.735Z,15.48
2022-09-17T11:12:38.153Z,15.60
2022-09-17T11:15:21.963Z,15.75
2022-09-17T11:18:31.301Z,15.65
2022-09-17T11:21:14.977Z,15.82
2022-09-17T11:24:34.781Z,15.97
2022-09-17T11:27:13.309Z,15.94
2022-09-17T11:30:05.554Z,15.98
2022-09-17T11:33:00.439Z,16.30
2022-09-17T11:35:32.098Z,16.36
2022-09-17T11:38:07.522Z,16.73
2022-09-17T11:40:42.931Z,16.58
2022-09-17T11:43:19.529Z,16.82
2022-09-17T11:45:58.289Z,16.78
2022-09-17T11:48:34.963Z,16.67
2022-09-17T11:51:09.896Z,16.27
2022-09-17T11:53:44.347Z,16.41
2022-09-17T11:56:20.816Z,16.67
2022-09-17T11:58:52.899Z,16.66
2022-09-17T12:01:26.789Z,17.36
2022-09-17T12:03:59.375Z,17.75
2022-09-17T12:06:35.118Z,18.27
2022-09-17T12:09:10.652Z,18.49
2022-09-17T12:11:46.519Z,18.51
2022-09-17T12:14:21.982Z,18.86
2022-09-17T12:16:54.095Z,18.03
2022-09-17T12:19:27.606Z,17.76
2022-09-17T12:22:01.418Z,17.89
2022-09-17T12:24:30.996Z,18.04
2022-09-17T12:27:10.917Z,17.91
2022-09-17T12:30:11.099Z,18.21
2022-09-17T12:32:52.236Z,18.35
2022-09-17T12:36:00.183Z,17.70
2022-09-17T12:38:42.500Z,17.22
2022-09-17T12:41:17.490Z,17.38
2022-09-17T12:44:01.031Z,17.75
2022-09-17T12:46:48.095Z,18.32
2022-09-17T12:49:39.535Z,18.21
2022-09-17T12:52:14.903Z,18.35
2022-09-17T12:55:24.681Z,18.10
2022-09-17T12:58:01.163Z,17.44
2022-09-17T13:00:30.446Z,17.44
2022-09-17T13:03:05.295Z,18.07
2022-09-17T13:05:58.333Z,18.41
2022-09-17T13:09:00.375Z,18.71
2022-09-17T13:11:55.036Z,17.91
2022-09-17T13:14:31.907Z,18.22
2022-09-17T13:17:08.037Z,18.90
2022-09-17T13:19:41.523Z,18.97
2022-09-17T13:22:18.047Z,18.84
2022-09-17T13:24:48.979Z,17.68
2022-09-17T13:27:25.624Z,17.27
2022-09-17T13:30:04.133Z,17.64
2022-09-17T13:32:53.782Z,18.05
2022-09-17T13:35:50.788Z,18.18
2022-09-17T13:38:24.460Z,18.95
2022-09-17T13:40:53.561Z,19.04
2022-09-17T13:43:27.191Z,18.20
2022-09-17T13:46:18.226Z,17.86
2022-09-17T13:48:50.942Z,17.31
2022-09-17T13:51:58.346Z,17.56
2022-09-17T13:54:38.890Z,18.53
2022-09-17T13:57:16.256Z,18.95
2022-09-17T13:59:59.295Z,18.92
2022-09-17T14:02:39.577Z,18.97
2022-09-17T14:05:39.203Z,19.08
2022-09-17T14:08:30.948Z,18.93
2022-09-17T14:11:01.907Z,18.94
2022-09-17T14:13:44.869Z,18.83
2022-09-17T14:16:37.701Z,18.84
2022-09-17T14:19:24.477Z,18.49
2022-09-17T14:22:02.670Z,19.33
2022-09-17T14:24:38.531Z,19.41
2022-09-17T14:27:16.266Z,18.55
2022-09-17T14:30:07.061Z,19.09
2022-09-17T14:32:42.297Z,19.25
2022-09-17T14:35:21.490Z,18.28
2022-09-17T14:37:56.535Z,18.13
2022-09-17T14:40:25.708Z,18.06
2022-09-17T14:42:56.853Z,17.80
2022-09-17T14:45:32.271Z,17.83
2022-09-17T14:48:31.423Z,17.01
2022-09-17T14:51:29.487Z,17.00
2022-09-17T14:54:17.264Z,17.05
2022-09-17T14:56:50.685Z,16.57
2022-09-17T14:59:24.790Z,16.22
2022-09-17T15:01:52.891Z,15.99
2022-09-17T15:04:26.525Z,15.90
2022-09-17T15:07:06.837Z,15.88
2022-09-17T15:09:36.208Z,15.73
2022-09-17T15:12:06.074Z,15.84
2022-09-17T15:14:38.271Z,15.98
2022-09-17T15:17:07.133Z,15.92
2022-09-17T15:19:38.335Z,16.06
2022-09-17T15:22:10.973Z,15.82
2022-09-17T15:24:44.887Z,15.82
2022-09-17T15:27:18.419Z,15.68
2022-09-17T15:29:50.691Z,15.89
2022-09-17T15:32:18.819Z,16.40
2022-09-17T15:34:47.036Z,16.55
2022-09-17T15:37:19.436Z,16.72
2022-09-17T15:39:55.651Z,16.46
2022-09-17T15:42:28.842Z,16.20
2022-09-17T15:45:09.420Z,16.24
2022-09-17T15:47:49.573Z,15.85
2022-09-17T15:50:19.797Z,15.44
2022-09-17T15:52:48.553Z,14.73
2022-09-17T15:55:37.183Z,14.32
2022-09-17T15:58:18.809Z,14.26
2022-09-17T16:00:47.453Z,13.95
2022-09-17T16:04:06.385Z,13.85
2022-09-17T16:06:40.298Z,13.60
2022-09-17T16:09:41.301Z,13.46
2022-09-17T16:12:14.698Z,13.24
2022-09-17T16:14:50.765Z,13.35
2022-09-17T16:17:35.616Z,13.22
2022-09-17T16:20:16.754Z,13.23
2022-09-17T16:22:45.483Z,13.10
2022-09-17T16:25:13.700Z,12.92
2022-09-17T16:27:50.342Z,12.73
2022-09-17T16:30:20.496Z,12.73
2022-09-17T16:32:48.893Z,12.70
2022-09-17T16:35:18.580Z,12.53
2022-09-17T16:37:50.141Z,12.20
2022-09-17T16:40:18.736Z,12.06
2022-09-17T16:42:48.911Z,12.00
2022-09-17T16:45:22.651Z,12.02
2022-09-17T16:47:53.752Z,11.96
2022-09-17T16:50:21.683Z,12.01
2022-09-17T16:52:50.557Z,12.08
2022-09-17T16:55:19.465Z,11.86
2022-09-17T16:57:49.330Z,11.84
2022-09-17T17:00:19.914Z,11.82
2022-09-17T17:02:53.685Z,11.69
2022-09-17T17:05:21.721Z,11.81
2022-09-17T17:07:50.234Z,11.72
2022-09-17T17:10:18.247Z,11.79
2022-09-17T17:12:46.235Z,11.81
2022-09-17T17:15:16.524Z,11.68
2022-09-17T17:17:44.510Z,11.77
2022-09-17T17:20:14.518Z,11.63
2022-09-17T17:22:43.372Z,11.62
2022-09-17T17:25:12.690Z,11.64
2022-09-17T17:27:41.406Z,11.52
2022-09-17T17:30:16.617Z,11.48
2022-09-17T17:32:50.530Z,11.51
2022-09-17T17:35:19.167Z,11.42
2022-09-17T17:37:48.571Z,11.46
2022-09-17T17:40:16.745Z,11.62
2022-09-17T17:42:47.467Z,11.59
2022-09-17T17:45:15.840Z,11.47
2022-09-17T17:47:46.278Z,11.50
2022-09-17T17:50:15.731Z,11.51
2022-09-17T17:52:47.993Z,11.42
2022-09-17T17:55:16.692Z,11.52
2022-09-17T17:57:44.601Z,11.45
2022-09-17T18:00:16.242Z,11.47
2022-09-17T18:02:45.719Z,11.40
2022-09-17T18:05:14.282Z,11.46
2022-09-17T18:07:42.147Z,11.38
2022-09-17T18:10:11.011Z,11.34
2022-09-17T18:12:38.849Z,11.39
2022-09-17T18:15:08.394Z,11.38
2022-09-17T18:17:36.646Z,11.39
2022-09-17T18:20:06.604Z,11.41
2022-09-17T18:22:34.461Z,11.61
2022-09-17T18:25:02.367Z,11.70
2022-09-17T18:27:31.266Z,11.65
2022-09-17T18:29:59.118Z,11.74
2022-09-17T18:32:26.963Z,11.55
2022-09-17T18:34:54.867Z,11.60
2022-09-17T18:37:24.209Z,11.50
2022-09-17T18:39:58.420Z,11.49
2022-09-17T18:42:27.157Z,11.42
2022-09-17T18:44:55.155Z,11.53
2022-09-17T18:47:23.667Z,11.40
2022-09-17T18:49:51.475Z,11.42
2022-09-17T18:52:19.896Z,11.51
2022-09-17T18:54:49.195Z,11.42
2022-09-17T18:57:17.530Z,11.39
2022-09-17T18:59:45.432Z,11.28
2022-09-17T19:02:14.021Z,11.21
2022-09-17T19:04:42.738Z,11.21
2022-09-17T19:07:10.576Z,11.21
2022-09-17T19:09:38.502Z,11.10
2022-09-17T19:12:07.887Z,11.08
2022-09-17T19:14:36.225Z,11.15
2022-09-17T19:17:04.123Z,11.03
2022-09-17T19:19:31.945Z,10.90
2022-09-17T19:21:59.866Z,10.89
2022-09-17T19:24:28.086Z,10.99
2022-09-17T19:26:56.013Z,10.77
2022-09-17T19:29:25.750Z,10.79
2022-09-17T19:31:53.589Z,10.69
2022-09-17T19:34:24.200Z,10.67
2022-09-17T19:36:52.052Z,10.75
2022-09-17T19:39:19.952Z,10.69
2022-09-17T19:41:48.156Z,10.72
2022-09-17T19:44:16.107Z,10.67
2022-09-17T19:46:46.635Z,10.74
2022-09-17T19:49:14.652Z,10.82
2022-09-17T19:51:42.560Z,10.86
2022-09-17T19:54:11.757Z,10.93
2022-09-17T19:56:40.018Z,10.82
2022-09-17T19:59:07.958Z,10.88
2022-09-17T20:01:36.329Z,10.85
2022-09-17T20:04:07.013Z,10.81
2022-09-17T20:06:35.446Z,10.79
2022-09-17T20:09:04.229Z,10.88
2022-09-17T20:11:32.111Z,10.78
2022-09-17T20:14:03.278Z,10.84
2022-09-17T20:16:31.838Z,10.91
2022-09-17T20:18:59.941Z,10.84
2022-09-17T20:21:31.290Z,10.89
2022-09-17T20:23:59.757Z,10.92
2022-09-17T20:26:28.270Z,10.90
2022-09-17T20:28:56.537Z,11.00
2022-09-17T20:31:25.998Z,10.92
2022-09-17T20:33:55.252Z,10.91
2022-09-17T20:36:25.736Z,10.87
2022-09-17T20:39:23.220Z,10.86
2022-09-17T20:41:43.505Z,10.77
2022-09-17T20:44:11.834Z,10.75
2022-09-17T20:46:40.036Z,10.75
2022-09-17T20:49:07.941Z,10.85
2022-09-17T20:51:36.344Z,10.80
2022-09-17T20:54:07.486Z,10.86
2022-09-17T20:56:36.367Z,10.89
2022-09-17T20:59:13.003Z,10.94
2022-09-17T21:01:44.689Z,11.03
2022-09-17T21:04:15.925Z,11.06
2022-09-17T21:06:45.124Z,11.09
2022-09-17T21:09:16.695Z,11.18
2022-09-17T21:11:45.519Z,11.24
2022-09-17T21:14:15.583Z,11.17
2022-09-17T21:16:43.510Z,11.19
2022-09-17T21:19:14.095Z,11.17
2022-09-17T21:21:41.924Z,11.21
2022-09-17T21:24:10.487Z,11.18
2022-09-17T21:26:39.804Z,11.21
2022-09-17T21:29:07.918Z,11.26
2022-09-17T21:31:38.625Z,11.25
2022-09-17T21:34:08.586Z,11.24
2022-09-17T21:36:38.900Z,11.19
2022-09-17T21:39:13.598Z,11.24
2022-09-17T21:41:43.253Z,11.21
2022-09-17T21:44:11.670Z,11.18
2022-09-17T21:46:41.684Z,11.18
2022-09-17T21:49:10.001Z,11.11
2022-09-17T21:51:39.439Z,11.12
2022-09-17T21:54:09.170Z,11.20
2022-09-17T21:56:37.557Z,11.21
2022-09-17T21:59:08.046Z,11.20
2022-09-17T22:01:40.139Z,11.21
2022-09-17T22:04:09.957Z,11.22
2022-09-17T22:06:38.670Z,11.19
2022-09-17T22:09:07.964Z,11.16
2022-09-17T22:11:38.137Z,11.16
2022-09-17T22:14:11.766Z,11.11
2022-09-17T22:16:41.795Z,11.17
2022-09-17T22:19:11.891Z,11.11
2022-09-17T22:21:42.310Z,11.07
2022-09-17T22:24:12.020Z,11.23
2022-09-17T22:26:43.272Z,11.08
2022-09-17T22:29:16.009Z,11.09
2022-09-17T22:31:45.152Z,11.18
2022-09-17T22:34:15.541Z,11.01
2022-09-17T22:36:44.010Z,11.06
2022-09-17T22:39:12.608Z,11.12
2022-09-17T22:41:45.126Z,11.13
2022-09-17T22:44:17.545Z,11.31
2022-09-17T22:46:47.347Z,11.28
2022-09-17T22:49:15.638Z,11.23
2022-09-17T22:51:44.653Z,11.20
2022-09-17T22:54:14.908Z,11.23
2022-09-17T22:56:43.575Z,11.18
2022-09-17T22:59:11.619Z,11.17
2022-09-17T23:01:43.255Z,11.14
2022-09-17T23:04:11.723Z,11.15
2022-09-17T23:06:42.438Z,11.28
2022-09-17T23:09:12.686Z,11.39
2022-09-17T23:11:40.613Z,11.36
2022-09-17T23:14:10.418Z,11.25
2022-09-17T23:16:40.150Z,11.22
2022-09-17T23:19:10.286Z,11.29
2022-09-17T23:21:39.500Z,11.22
2022-09-17T23:24:08.202Z,11.29
2022-09-17T23:26:36.196Z,11.28
2022-09-17T23:29:05.795Z,11.15
2022-09-17T23:31:35.665Z,11.20
2022-09-17T23:34:05.443Z,11.20
2022-09-17T23:36:38.735Z,11.16
2022-09-17T23:39:08.772Z,11.21
2022-09-17T23:41:39.901Z,11.27
2022-09-17T23:44:14.587Z,11.30
2022-09-17T23:46:43.110Z,11.19
2022-09-17T23:49:12.128Z,11.17
2022-09-17T23:51:41.926Z,11.20
2022-09-17T23:54:10.545Z,11.30
2022-09-17T23:56:39.597Z,11.21
2022-09-17T23:59:08.684Z,11.21
